createdAt,value
2023-02-26T00:01:32.481Z,7.72
2023-02-26T00:04:03.784Z,7.80
2023-02-26T00:06:34.852Z,7.53
2023-02-26T00:09:02.477Z,7.85
2023-02-26T00:11:30.122Z,7.38
2023-02-26T00:13:57.614Z,7.20
2023-02-26T00:16:29.850Z,8.13
2023-02-26T00:18:59.875Z,8.07
2023-02-26T00:21:28.893Z,7.85
2023-02-26T00:23:56.828Z,6.68
2023-02-26T00:26:26.685Z,6.60
2023-02-26T00:28:54.814Z,6.95
2023-02-26T00:31:25.159Z,7.25
2023-02-26T00:33:53.795Z,7.05
2023-02-26T00:36:46.246Z,6.75
2023-02-26T00:39:35.812Z,6.72
2023-02-26T00:42:03.275Z,6.55
2023-02-26T00:44:30.998Z,6.47
2023-02-26T00:46:58.319Z,6.72
2023-02-26T00:50:08.966Z,7.78
2023-02-26T00:52:44.038Z,6.50
2023-02-26T00:55:11.298Z,6.05
2023-02-26T00:57:38.517Z,6.95
2023-02-26T01:00:08.236Z,6.55
2023-02-26T01:02:36.811Z,7.43
2023-02-26T01:05:04.783Z,6.50
2023-02-26T01:07:40.529Z,6.63
2023-02-26T01:10:08.843Z,6.35
2023-02-26T01:12:36.299Z,6.97
2023-02-26T01:15:04.864Z,7.90
2023-02-26T01:17:42.560Z,7.20
2023-02-26T01:20:17.595Z,6.95
2023-02-26T01:22:52.049Z,7.25
2023-02-26T01:25:25.814Z,6.97
2023-02-26T01:27:54.035Z,8.43
2023-02-26T01:30:21.881Z,7.28
2023-02-26T01:32:52.480Z,8.10
2023-02-26T01:35:37.597Z,9.35
2023-02-26T01:38:08.233Z,7.18
2023-02-26T01:41:12.757Z,7.00
2023-02-26T01:43:46.923Z,6.53
2023-02-26T01:46:23.023Z,6.20
2023-02-26T01:48:51.881Z,5.88
2023-02-26T01:51:39.626Z,6.53
2023-02-26T01:56:34.450Z,5.72
2023-02-26T01:59:06.044Z,5.80
2023-02-26T02:01:34.224Z,5.93
2023-02-26T02:04:01.454Z,6.38
2023-02-26T02:06:31.059Z,6.07
2023-02-26T02:08:58.368Z,6.78
2023-02-26T02:11:25.584Z,6.22
2023-02-26T02:14:07.863Z,6.63
2023-02-26T02:16:56.480Z,6.07
2023-02-26T15:25:08.043Z,0.60
2023-02-26T15:27:38.911Z,0.40
2023-02-26T15:30:06.554Z,0.70
2023-02-26T15:32:38.443Z,3.45
2023-02-26T15:35:22.785Z,0.40
2023-02-26T15:37:53.071Z,0.73
2023-02-26T15:40:33.088Z,0.75
2023-02-26T15:43:16.763Z,0.28
2023-02-26T15:46:11.286Z,0.30
2023-02-26T15:48:51.086Z,0.40
2023-02-26T15:51:24.707Z,0.70
2023-02-26T15:54:02.189Z,1.20
2023-02-26T15:57:05.690Z,0.88
2023-02-26T15:59:48.059Z,1.23
2023-02-26T16:02:21.005Z,0.80
2023-02-26T16:04:48.661Z,0.45
2023-02-26T16:07:16.143Z,0.68
2023-02-26T16:09:47.343Z,0.73
2023-02-26T16:12:43.913Z,0.52
2023-02-26T16:15:22.471Z,0.80
2023-02-26T16:17:52.224Z,1.25
2023-02-26T16:20:26.347Z,1.10
2023-02-26T16:23:04.298Z,0.40
2023-02-26T16:25:52.179Z,1.60
2023-02-26T16:32:36.865Z,0.63
2023-02-26T16:35:19.819Z,0.82
2023-02-26T16:38:05.568Z,0.85
2023-02-26T16:40:41.840Z,1.00
2023-02-26T16:43:24.134Z,0.82
2023-02-26T16:45:58.764Z,0.40
2023-02-26T16:48:37.998Z,1.05
2023-02-26T16:51:20.478Z,0.35
2023-02-26T16:54:08.337Z,0.28
2023-02-26T16:56:40.745Z,1.00
2023-02-26T16:59:07.726Z,1.80
2023-02-26T17:01:50.883Z,1.20
2023-02-26T17:04:19.945Z,0.60
2023-02-26T17:06:48.222Z,1.38
2023-02-26T17:09:38.363Z,0.77
2023-02-26T17:12:36.341Z,0.75
2023-02-26T17:15:03.535Z,0.57
2023-02-26T17:17:30.655Z,0.40
2023-02-26T17:19:58.186Z,0.73
2023-02-26T17:22:28.035Z,1.00
2023-02-26T17:24:55.401Z,1.00
2023-02-26T17:27:35.417Z,0.63
2023-02-26T17:30:05.822Z,0.50
2023-02-26T17:32:33.469Z,0.50
2023-02-26T17:35:01.815Z,0.60
2023-02-26T17:37:36.084Z,0.70
2023-02-26T17:40:05.327Z,0.50
2023-02-26T17:42:32.337Z,0.43
2023-02-26T17:45:00.133Z,0.50
2023-02-26T17:47:27.481Z,0.60
2023-02-26T17:49:54.658Z,0.50
2023-02-26T17:52:21.748Z,0.55
2023-02-26T17:54:49.010Z,0.57
2023-02-26T17:57:18.714Z,0.50
2023-02-26T17:59:46.388Z,0.38
2023-02-26T18:02:27.053Z,0.30
2023-02-26T18:04:54.652Z,0.57
2023-02-26T18:07:23.459Z,0.28
2023-02-26T18:09:50.459Z,0.40
2023-02-26T18:12:22.156Z,0.40
2023-02-26T18:14:49.918Z,0.73
2023-02-26T18:17:25.329Z,0.20
2023-02-26T18:22:24.031Z,0.30
2023-02-26T18:24:52.182Z,0.50
2023-02-26T18:27:21.523Z,0.63
2023-02-26T18:29:49.066Z,0.50
2023-02-26T18:32:18.576Z,0.45
2023-02-26T18:34:45.874Z,0.30
2023-02-26T18:37:15.380Z,0.50
2023-02-26T18:39:42.497Z,0.20
2023-02-26T18:42:24.045Z,0.52
2023-02-26T18:44:51.742Z,0.93
2023-02-26T18:47:21.609Z,0.38
2023-02-26T18:49:50.364Z,0.55
2023-02-26T18:52:17.905Z,0.70
2023-02-26T18:54:45.290Z,0.28
2023-02-26T18:57:12.488Z,0.55
2023-02-26T18:59:39.563Z,1.08
2023-02-26T19:02:07.731Z,0.30
2023-02-26T19:04:35.114Z,0.60
2023-02-26T19:07:02.353Z,0.40
2023-02-26T19:09:29.646Z,0.70
2023-02-26T19:11:57.474Z,0.32
2023-02-26T19:14:25.134Z,0.50
2023-02-26T19:16:52.289Z,0.38
2023-02-26T19:19:19.485Z,0.40
2023-02-26T19:21:46.711Z,0.70
2023-02-26T19:24:14.605Z,0.40
2023-02-26T19:26:42.695Z,0.70
2023-02-26T19:29:19.530Z,0.30
2023-02-26T19:31:46.928Z,0.70
2023-02-26T19:34:14.673Z,0.47
2023-02-26T19:36:48.142Z,0.47
2023-02-26T19:39:16.774Z,0.45
2023-02-26T19:41:44.303Z,0.20
2023-02-26T19:44:13.715Z,0.35
2023-02-26T19:49:11.745Z,0.50
2023-02-26T19:51:40.530Z,0.20
2023-02-26T19:54:07.672Z,0.32
2023-02-26T19:56:35.175Z,0.30
2023-02-26T19:59:02.522Z,0.40
2023-02-26T20:01:30.022Z,0.77
2023-02-26T20:03:57.312Z,0.20
2023-02-26T20:06:24.523Z,0.28
2023-02-26T20:08:51.549Z,0.40
2023-02-26T20:11:19.277Z,0.20
2023-02-26T20:13:46.942Z,0.40
2023-02-26T20:16:14.431Z,0.40
2023-02-26T20:18:41.783Z,0.82
2023-02-26T20:21:10.925Z,0.45
2023-02-26T20:23:39.257Z,0.20
2023-02-26T20:26:11.859Z,0.93
2023-02-26T20:28:39.000Z,0.60
2023-02-26T20:31:07.021Z,0.60
2023-02-26T20:33:37.390Z,0.20
2023-02-26T20:36:05.812Z,0.60
2023-02-26T20:38:33.015Z,0.30
2023-02-26T20:41:00.318Z,0.40
2023-02-26T20:43:27.631Z,0.30
2023-02-26T20:45:56.285Z,0.65
2023-02-26T20:48:24.655Z,0.43
2023-02-26T20:50:54.000Z,0.50
2023-02-26T20:55:49.646Z,0.50
2023-02-26T20:58:26.800Z,0.30
2023-02-26T21:00:59.419Z,0.22
2023-02-26T21:03:27.356Z,0.30
2023-02-26T21:05:58.012Z,0.20
2023-02-26T21:08:30.066Z,0.45
2023-02-26T21:10:57.882Z,0.30
2023-02-26T21:13:25.424Z,0.32
2023-02-26T21:15:52.640Z,0.40
2023-02-26T21:18:20.012Z,0.70
2023-02-26T21:20:50.358Z,0.30
2023-02-26T21:23:22.883Z,0.50
2023-02-26T21:25:56.268Z,0.40
2023-02-26T21:28:27.227Z,0.50
2023-02-26T21:30:58.039Z,0.40
2023-02-26T21:33:25.530Z,0.70
2023-02-26T21:35:55.617Z,0.38
2023-02-26T21:38:26.886Z,0.32
2023-02-26T21:40:54.429Z,0.25
2023-02-26T21:43:21.531Z,0.30
2023-02-26T21:45:49.656Z,0.52
2023-02-26T21:48:16.958Z,0.38
2023-02-26T21:50:44.120Z,0.40
2023-02-26T21:53:14.499Z,0.40
2023-02-26T21:55:42.557Z,0.55
2023-02-26T21:58:11.732Z,0.28
2023-02-26T22:00:39.008Z,0.30
2023-02-26T22:03:06.524Z,0.50
2023-02-26T22:05:33.883Z,0.50
2023-02-26T22:08:01.026Z,0.50
2023-02-26T22:10:28.487Z,0.57
2023-02-26T22:12:59.656Z,0.50
2023-02-26T22:15:49.459Z,0.30
2023-02-26T22:18:18.020Z,0.17
2023-02-26T22:20:45.223Z,0.40
2023-02-26T22:23:12.490Z,0.30
2023-02-26T22:25:40.288Z,0.32
2023-02-26T22:28:07.761Z,0.30
2023-02-26T22:30:35.976Z,0.47
2023-02-26T22:33:04.311Z,0.22
2023-02-26T22:35:31.997Z,0.52
2023-02-26T22:38:00.118Z,0.43
2023-02-26T22:40:27.674Z,0.43
2023-02-26T22:42:54.954Z,0.30
2023-02-26T22:45:22.117Z,0.40
2023-02-26T22:47:50.662Z,0.32
2023-02-26T22:50:18.336Z,0.50
2023-02-26T22:52:45.781Z,0.30
2023-02-26T22:55:13.054Z,0.82
2023-02-26T22:57:40.415Z,0.30
2023-02-26T23:00:11.633Z,0.22
2023-02-26T23:02:39.225Z,0.40
2023-02-26T23:05:09.301Z,0.30
2023-02-26T23:07:37.461Z,0.60
2023-02-26T23:10:06.174Z,0.22
2023-02-26T23:12:33.847Z,0.32
2023-02-26T23:15:01.349Z,0.20
2023-02-26T23:17:28.625Z,0.30
2023-02-26T23:19:55.733Z,0.60
2023-02-26T23:22:22.917Z,0.50
2023-02-26T23:24:50.123Z,0.22
2023-02-26T23:27:17.588Z,0.40
2023-02-26T23:29:45.839Z,0.30
2023-02-26T23:32:14.427Z,0.20
2023-02-26T23:34:41.637Z,0.32
2023-02-26T23:37:08.744Z,0.30
2023-02-26T23:39:35.923Z,0.40
2023-02-26T23:42:03.382Z,0.38
2023-02-26T23:44:30.656Z,0.50
2023-02-26T23:46:57.918Z,0.50
2023-02-26T23:49:25.263Z,0.30
2023-02-26T23:51:52.396Z,0.52
2023-02-26T23:54:19.690Z,0.47
2023-02-26T23:56:47.528Z,0.30
2023-02-26T23:59:14.765Z,0.52
